Time;durP1;ratioP1;P1;durP2;ratioP2;P2;SDS_P1;SDS_P2;PMS_P1;PMS_P2;Temp;Humidity;BMP_temperature;BMP_pressure;BME280_temperature;BME280_humidity;BME280_pressure;Samples;Min_cycle;Max_cycle;Signal;HPM_P1;HPM_P2
2023/04/27 00:02:07;;;;;;;7.63;4.70;;;;;;;9.18;100.00;100395.00;5077663;28;20250;-74
2023/04/27 00:04:32;;;;;;;7.23;4.07;;;;;;;9.19;100.00;100388.97;5079580;28;20185;-74
2023/04/27 00:06:58;;;;;;;3.90;3.60;;;;;;;9.24;100.00;100383.81;5077504;28;20200;-74
2023/04/27 00:09:23;;;;;;;6.17;3.93;;;;;;;9.25;100.00;100383.78;5075987;28;20443;-74
2023/04/27 00:11:49;;;;;;;4.50;3.33;;;;;;;9.26;100.00;100380.34;5077061;28;20207;-74
2023/04/27 00:14:14;;;;;;;4.57;3.93;;;;;;;9.25;100.00;100377.78;5078651;28;20189;-73
2023/04/27 00:16:39;;;;;;;4.50;3.57;;;;;;;9.24;100.00;100379.47;5075216;28;20616;-74
2023/04/27 00:19:05;;;;;;;5.27;3.60;;;;;;;9.20;100.00;100369.16;5078365;28;20209;-74
2023/04/27 00:21:31;;;;;;;5.27;4.20;;;;;;;9.14;100.00;100377.78;5075705;28;20201;-74
2023/04/27 00:23:56;;;;;;;5.80;4.20;;;;;;;9.06;100.00;100375.22;5078361;28;20213;-73
2023/04/27 00:26:22;;;;;;;5.97;4.20;;;;;;;9.00;100.00;100376.09;5078258;28;20226;-74
2023/04/27 00:28:48;;;;;;;4.53;4.10;;;;;;;8.94;100.00;100370.06;5079475;28;20947;-74
2023/04/27 00:31:13;;;;;;;4.03;3.50;;;;;;;8.88;100.00;100370.06;5078541;28;20192;-74
2023/04/27 00:33:38;;;;;;;3.90;3.50;;;;;;;8.81;100.00;100367.50;5080233;28;20189;-74
2023/04/27 00:36:04;;;;;;;4.43;3.90;;;;;;;8.76;100.00;100355.47;5081541;28;20193;-74
2023/04/27 00:38:30;;;;;;;4.50;3.73;;;;;;;8.71;100.00;100358.03;5079183;28;20741;-74
2023/04/27 00:41:02;;;;;;;4.00;3.70;;;;;;;8.69;100.00;100364.94;5080257;28;20205;-74
2023/04/27 00:43:27;;;;;;;4.70;4.00;;;;;;;8.67;100.00;100361.50;5081936;28;20181;-74
2023/04/27 00:45:53;;;;;;;4.30;3.90;;;;;;;8.64;100.00;100361.50;5078625;28;20190;-74
2023/04/27 00:48:18;;;;;;;4.00;3.53;;;;;;;8.62;100.00;100363.19;5079141;28;20255;-72
2023/04/27 00:50:43;;;;;;;3.40;3.10;;;;;;;8.59;100.00;100368.34;5081448;28;20593;-74
2023/04/27 00:53:09;;;;;;;3.33;3.03;;;;;;;8.56;100.00;100370.94;5077982;28;20196;-73
2023/04/27 00:55:34;;;;;;;3.50;3.20;;;;;;;8.52;100.00;100373.53;5080595;28;20224;-73
2023/04/27 00:58:00;;;;;;;3.30;3.03;;;;;;;8.49;100.00;100375.22;5077246;28;20689;-73
2023/04/27 01:00:25;;;;;;;3.27;3.00;;;;;;;8.45;100.00;100369.19;5076144;28;20185;-74
2023/04/27 01:02:51;;;;;;;3.30;3.00;;;;;;;8.44;100.00;100374.34;5077477;28;20189;-74
2023/04/27 01:05:18;;;;;;;3.30;3.00;;;;;;;8.43;100.00;100370.88;5077542;28;20181;-73
2023/04/27 01:07:43;;;;;;;3.50;3.30;;;;;;;8.43;100.00;100377.78;5075613;28;20201;-74
2023/04/27 01:10:09;;;;;;;4.13;3.37;;;;;;;8.42;100.00;100371.75;5077273;28;20664;-74
2023/04/27 01:12:34;;;;;;;3.93;3.63;;;;;;;8.42;100.00;100387.22;5075509;28;20185;-74
2023/04/27 01:14:59;;;;;;;3.57;3.30;;;;;;;8.42;100.00;100376.91;5074901;28;20205;-74
2023/04/27 01:17:25;;;;;;;4.70;4.30;;;;;;;8.43;100.00;100370.88;5070479;28;20209;-74
2023/04/27 01:19:54;;;;;;;3.40;3.20;;;;;;;8.45;100.00;100373.50;5074348;28;20245;-74
2023/04/27 01:22:20;;;;;;;4.67;3.80;;;;;;;8.49;100.00;100381.25;5077286;28;20200;-74
2023/04/27 01:24:45;;;;;;;4.17;3.80;;;;;;;8.54;100.00;100382.13;5077340;28;20283;-73
2023/04/27 01:27:12;;;;;;;4.13;3.70;;;;;;;8.59;100.00;100389.88;5078567;28;20260;-73
2023/04/27 01:29:37;;;;;;;4.27;3.67;;;;;;;8.60;100.00;100385.56;5076549;28;20189;-73
2023/04/27 01:32:03;;;;;;;4.37;3.97;;;;;;;8.62;100.00;100379.53;5077265;28;20927;-74
2023/04/27 01:34:28;;;;;;;4.07;3.77;;;;;;;8.65;100.00;100376.97;5079660;28;20712;-74
2023/04/27 01:36:53;;;;;;;4.07;3.77;;;;;;;8.68;100.00;100382.13;5080222;28;20912;-73
2023/04/27 01:39:18;;;;;;;4.30;3.90;;;;;;;8.69;100.00;100381.25;5080204;28;20205;-74
2023/04/27 01:41:44;;;;;;;4.80;4.30;;;;;;;8.68;100.00;100387.28;5077960;28;20208;-74
2023/04/27 01:44:10;;;;;;;4.60;4.20;;;;;;;8.67;100.00;100389.88;5078944;28;20184;-74
2023/04/27 01:46:36;;;;;;;4.73;4.33;;;;;;;8.65;100.00;100387.28;5080861;28;20202;-74
2023/04/27 01:49:01;;;;;;;4.37;4.03;;;;;;;8.62;100.00;100378.69;5080871;28;20232;-73
2023/04/27 01:51:26;;;;;;;4.63;4.20;;;;;;;8.59;100.00;100384.72;5073311;28;20257;-74
2023/04/27 01:53:52;;;;;;;4.50;4.10;;;;;;;8.55;100.00;100390.72;5073072;28;20662;-72
2023/04/27 01:56:17;;;;;;;4.73;4.00;;;;;;;8.52;100.00;100390.72;5074482;28;20238;-74
2023/04/27 01:58:43;;;;;;;4.93;4.53;;;;;;;8.49;100.00;100389.00;5074313;28;20204;-74
2023/04/27 02:01:08;;;;;;;4.37;4.00;;;;;;;8.47;100.00;100388.09;5071178;28;20209;-73
2023/04/27 02:03:33;;;;;;;4.93;3.90;;;;;;;8.45;100.00;100383.81;5072202;28;20190;-74
2023/04/27 02:05:58;;;;;;;5.17;4.23;;;;;;;8.44;100.00;100390.66;5076618;28;20689;-74
2023/04/27 02:08:24;;;;;;;4.10;3.80;;;;;;;8.44;100.00;100385.50;5074044;28;20213;-74
2023/04/27 02:10:49;;;;;;;4.00;3.70;;;;;;;8.44;100.00;100385.50;5075683;28;20657;-74
2023/04/27 02:13:14;;;;;;;4.13;3.87;;;;;;;8.45;100.00;100384.66;5075381;28;20630;-74
2023/04/27 02:15:40;;;;;;;4.10;3.80;;;;;;;8.45;100.00;100391.53;5075721;28;20741;-73
2023/04/27 02:18:05;;;;;;;5.23;4.80;;;;;;;8.46;100.00;100395.84;5079934;28;20216;-74
2023/04/27 02:20:31;;;;;;;4.20;3.90;;;;;;;8.46;100.00;100399.28;5077029;28;20193;-74
2023/04/27 02:22:57;;;;;;;4.47;4.07;;;;;;;8.46;100.00;100394.13;5078922;28;20242;-72
2023/04/27 02:25:22;;;;;;;4.50;4.20;;;;;;;8.47;100.00;100395.00;5080240;28;20185;-74
2023/04/27 03:18:16;;;;;;;5.27;4.73;;;;;;;8.28;100.00;100399.22;5077222;28;20547;-72
2023/04/27 03:20:41;;;;;;;5.17;4.77;;;;;;;8.28;100.00;100402.69;5075010;28;20184;-73
2023/04/27 03:23:07;;;;;;;5.30;4.90;;;;;;;8.30;100.00;100405.25;5079009;28;20206;-73
2023/04/27 03:25:32;;;;;;;5.10;4.60;;;;;;;8.29;100.00;100403.53;5081292;28;20647;-72
2023/04/27 03:27:58;;;;;;;5.23;4.83;;;;;;;8.29;100.00;100406.97;5078192;28;20209;-74
2023/04/27 03:30:23;;;;;;;5.50;5.00;;;;;;;8.26;100.00;100396.66;5076334;28;20278;-74
2023/04/27 03:39:32;;;;;;;7.37;5.80;;;;;;;8.14;100.00;100410.38;5061509;28;20617;-73
2023/04/27 03:42:16;;;;;;;6.30;5.77;;;;;;;8.03;100.00;100404.31;5078105;28;22277;-72
2023/04/27 03:48:21;;;;;;;6.60;6.07;;;;;;;7.93;100.00;100414.63;5077772;28;20224;-73
2023/04/27 03:54:09;;;;;;;5.97;5.47;;;;;;;7.87;100.00;100427.47;5076209;28;20188;-73
2023/04/27 03:57:12;;;;;;;6.10;5.43;;;;;;;7.87;100.00;100422.31;5077550;28;20188;-73
2023/04/27 03:59:37;;;;;;;5.90;5.40;;;;;;;7.86;100.00;100424.88;5073885;28;20222;-73
2023/04/27 04:05:24;;;;;;;6.20;5.70;;;;;;;7.85;100.00;100425.75;5079566;28;20204;-73
2023/04/27 04:11:30;;;;;;;5.70;5.30;;;;;;;7.88;100.00;100439.50;5075951;28;20762;-73
2023/04/27 04:13:55;;;;;;;5.83;5.33;;;;;;;7.90;100.00;100434.31;5076084;28;20780;-73
2023/04/27 04:20:01;;;;;;;6.50;5.80;;;;;;;7.90;100.00;100424.03;5079211;28;20269;-73
2023/04/27 04:23:03;;;;;;;7.53;6.07;;;;;;;7.86;100.00;100427.47;5075658;28;20653;-72
2023/04/27 04:25:28;;;;;;;6.43;5.60;;;;;;;7.82;100.00;100428.28;5077399;28;20931;-72
2023/04/27 04:34:00;;;;;;;7.90;6.30;;;;;;;7.83;100.00;100428.28;5075126;28;20251;-72
2023/04/27 04:36:44;;;;;;;6.20;5.67;;;;;;;7.84;100.00;100434.31;5078424;28;20199;-73
2023/04/27 04:42:32;;;;;;;7.10;6.40;;;;;;;7.92;100.00;100435.19;5079902;28;20218;-73
2023/04/27 04:48:00;;;;;;;5.53;5.13;;;;;;;8.00;100.00;100425.81;5075457;28;20810;-73
2023/04/27 04:56:50;;;;;;;5.20;4.80;;;;;;;8.27;100.00;100431.03;5079377;28;20730;-73
2023/04/27 04:59:53;;;;;;;4.90;4.50;;;;;;;8.38;100.00;100429.34;5059880;28;20209;-73
2023/04/27 05:08:24;;;;;;;5.60;5.10;;;;;;;8.67;100.00;100439.75;5080085;28;20220;-74
2023/04/27 05:11:10;;;;;;;5.47;4.97;;;;;;;8.78;100.00;100446.63;5079974;28;20185;-73
2023/04/27 05:16:38;;;;;;;6.43;5.83;;;;;;;9.05;100.00;100444.94;5074445;28;20195;-74
2023/04/27 05:19:22;;;;;;;6.27;4.97;;;;;;;9.09;100.00;100447.50;5073564;28;20214;-73
2023/04/27 05:27:53;;;;;;;5.87;5.37;;;;;;;9.48;100.00;100451.75;5065020;28;20303;-73
2023/04/27 05:30:56;;;;;;;5.27;4.87;;;;;;;9.58;100.00;100456.91;5074751;28;20185;-74
2023/04/27 05:37:02;;;;;;;6.20;5.30;;;;;;;9.76;98.23;100463.75;5078207;28;20380;-74
2023/04/27 05:45:52;;;;;;;5.93;5.33;;;;;;;10.37;94.92;100471.28;5071096;28;20200;-73
2023/04/27 06:01:11;;;;;;;5.10;4.70;;;;;;;10.18;92.73;100493.81;5079689;28;20239;-73
2023/04/27 06:03:36;;;;;;;6.27;4.90;;;;;;;10.31;92.33;100495.47;5081773;28;20224;-73
2023/04/27 06:06:20;;;;;;;5.13;4.63;;;;;;;10.44;91.62;100495.44;5082402;28;20213;-73
2023/04/27 06:09:04;;;;;;;4.30;4.00;;;;;;;10.59;90.92;100495.34;5080737;28;20201;-73
2023/04/27 06:17:18;;;;;;;5.53;4.97;;;;;;;10.95;88.69;100502.88;5084460;28;20262;-73
2023/04/27 06:20:21;;;;;;;4.83;4.40;;;;;;;10.97;88.13;100498.56;5082336;28;20662;-73
2023/04/27 06:37:22;;;;;;;5.23;4.73;;;;;;;11.70;85.85;100498.78;5084602;28;20241;-73
2023/04/27 06:40:07;;;;;;;7.13;4.73;;;;;;;12.03;84.44;100501.06;5081711;28;20186;-73
2023/04/27 06:42:51;;;;;;;6.57;4.97;;;;;;;12.36;83.89;100504.13;5077616;28;20203;-72
2023/04/27 06:54:25;;;;;;;5.07;4.57;;;;;;;13.30;80.74;100509.69;5082345;28;20188;-74
2023/04/27 06:56:51;;;;;;;5.27;4.53;;;;;;;13.65;79.89;100505.66;5079268;28;20191;-74
2023/04/27 06:59:16;;;;;;;4.33;3.93;;;;;;;14.08;78.66;100514.34;5082848;28;20609;-74
2023/04/27 07:02:00;;;;;;;4.13;3.73;;;;;;;14.59;77.75;100508.09;5083488;28;20298;-74
2023/04/27 07:19:21;;;;;;;5.23;4.37;;;;;;;15.50;71.52;100497.25;5080072;28;20215;-73
2023/04/27 07:22:23;;;;;;;4.60;3.90;;;;;;;15.50;71.63;100502.47;5083346;28;20209;-72
2023/04/27 07:28:30;;;;;;;6.50;4.50;;;;;;;15.73;71.09;100497.56;5080456;28;20220;-73
2023/04/27 07:31:14;;;;;;;4.27;3.87;;;;;;;15.79;71.12;100500.00;5078262;28;20247;-74
2023/04/27 07:33:59;;;;;;;4.07;3.17;;;;;;;16.04;71.10;100499.34;5076209;28;20664;-74
2023/04/27 07:37:02;;;;;;;4.87;3.53;;;;;;;16.31;70.55;100497.69;5077893;28;20187;-74
2023/04/27 07:39:47;;;;;;;4.07;3.70;;;;;;;16.52;70.21;100495.34;5079825;28;20615;-74
2023/04/27 07:42:50;;;;;;;4.20;2.97;;;;;;;16.74;69.66;100482.47;5080287;28;20213;-74
2023/04/27 07:51:21;;;;;;;4.23;3.30;;;;;;;16.42;70.84;100479.09;5080004;28;20185;-74
2023/04/27 07:54:05;;;;;;;4.00;3.60;;;;;;;16.34;70.06;100484.53;5084086;28;20187;-74
2023/04/27 07:56:31;;;;;;;4.03;3.17;;;;;;;16.26;69.85;100479.56;5077952;28;20622;-74
2023/04/27 07:59:34;;;;;;;4.37;3.37;;;;;;;16.07;69.73;100479.25;5082078;28;20285;-72
2023/04/27 08:08:23;;;;;;;4.27;3.37;;;;;;;15.68;70.42;100477.66;5082925;28;20573;-73
2023/04/27 08:10:49;;;;;;;4.07;3.50;;;;;;;15.64;70.65;100477.81;5081616;28;20237;-74
2023/04/27 08:22:23;;;;;;;4.87;3.40;;;;;;;15.55;71.18;100468.47;5080140;28;20772;-74
2023/04/27 08:27:51;;;;;;;5.10;3.63;;;;;;;15.60;70.67;100470.94;5080427;28;20211;-73
2023/04/27 08:30:54;;;;;;;3.50;3.20;;;;;;;15.55;70.79;100463.25;5082626;28;20204;-74
2023/04/27 08:33:19;;;;;;;4.03;3.37;;;;;;;15.60;71.19;100469.19;5077305;28;20189;-74
2023/04/27 08:38:47;;;;;;;4.57;3.20;;;;;;;15.69;70.41;100466.34;5079572;28;21061;-73
2023/04/27 08:41:18;;;;;;;7.07;4.83;;;;;;;15.77;70.24;100468.75;5080800;28;20225;-74
2023/04/27 08:44:02;;;;;;;5.50;4.00;;;;;;;15.79;70.34;100466.94;5081449;28;20188;-74
2023/04/27 08:46:46;;;;;;;4.37;3.80;;;;;;;15.77;70.35;100473.09;5079149;28;20192;-74
2023/04/27 08:49:29;;;;;;;4.53;3.93;;;;;;;15.82;69.85;100459.00;5079942;28;20320;-74
2023/04/27 08:58:11;;;;;;;5.97;4.20;;;;;;;15.91;70.13;100459.69;5081609;28;20219;-74
2023/04/27 09:06:48;;;;;;;4.67;4.10;;;;;;;16.04;68.60;100460.19;5077946;28;20276;-74
2023/04/27 09:09:51;;;;;;;9.10;5.07;;;;;;;16.05;69.11;100454.94;5077861;28;20307;-72
2023/04/27 09:12:54;;;;;;;5.17;3.87;;;;;;;16.03;68.27;100454.13;5080763;28;20369;-74
2023/04/27 09:15:20;;;;;;;5.50;4.00;;;;;;;16.07;67.85;100453.13;5078669;28;20189;-73
2023/04/27 09:42:10;;;;;;;5.37;3.90;;;;;;;17.09;64.09;100446.53;5080398;28;20331;-74
2023/04/27 09:47:39;;;;;;;4.43;4.03;;;;;;;17.50;62.99;100446.84;5079804;28;20233;-74
2023/04/27 09:50:23;;;;;;;6.83;4.17;;;;;;;17.66;62.62;100447.16;5079711;28;20185;-73
2023/04/27 09:59:52;;;;;;;5.30;4.80;;;;;;;17.80;61.12;100445.78;5081908;28;20269;-75
2023/04/27 10:02:20;;;;;;;6.40;4.27;;;;;;;17.68;61.36;100436.66;5083039;28;20956;-74
2023/04/27 10:05:13;;;;;;;4.70;3.90;;;;;;;17.61;61.58;100433.41;5084459;28;20188;-74
2023/04/27 10:10:52;;;;;;;4.67;3.87;;;;;;;17.79;61.32;100431.00;5076592;28;20191;-74
2023/04/27 10:13:25;;;;;;;4.50;3.70;;;;;;;17.86;59.44;100427.25;5082232;28;20709;-74
2023/04/27 10:22:23;;;;;;;2.37;2.17;;;;;;;18.13;59.28;100424.53;5082174;28;20273;-74
2023/04/27 10:31:44;;;;;;;5.30;3.27;;;;;;;18.20;56.15;100420.78;5079616;28;20346;-74
2023/04/27 10:34:48;;;;;;;3.27;2.40;;;;;;;18.55;56.66;100421.13;5079762;28;20195;-74
2023/04/27 10:37:32;;;;;;;4.87;2.90;;;;;;;18.69;56.12;100415.34;5077938;28;20288;-74
2023/04/27 10:46:22;;;;;;;4.73;2.67;;;;;;;18.72;55.95;100415.22;5080304;28;20231;-75
2023/04/27 10:49:26;;;;;;;3.30;2.80;;;;;;;18.79;56.23;100410.59;5080469;28;20700;-74
2023/04/27 10:52:28;;;;;;;2.87;2.47;;;;;;;18.87;55.78;100408.47;5079443;28;20185;-74
2023/04/27 10:58:22;;;;;;;3.03;2.20;;;;;;;18.94;56.73;100398.63;5078554;28;20302;-74
2023/04/27 11:00:47;;;;;;;2.57;2.10;;;;;;;19.04;56.67;100399.94;5081541;28;20188;-74
2023/04/27 11:09:26;;;;;;;3.00;2.10;;;;;;;19.40;57.27;100403.66;5078989;28;20281;-74
2023/04/27 11:12:11;;;;;;;4.63;2.80;;;;;;;19.35;57.12;100408.25;5078586;28;20188;-75
2023/04/27 11:21:21;;;;;;;2.97;2.10;;;;;;;19.16;54.80;100392.47;5079595;28;20204;-75
2023/04/27 11:24:24;;;;;;;4.80;2.80;;;;;;;19.01;55.07;100389.59;5079538;28;21223;-75
2023/04/27 11:36:17;;;;;;;3.70;2.20;;;;;;;19.76;54.69;100374.03;5081580;28;20689;-75
2023/04/27 11:39:05;;;;;;;3.77;1.90;;;;;;;19.90;55.05;100364.69;5079261;28;21077;-75
2023/04/27 11:42:07;;;;;;;2.37;1.80;;;;;;;20.07;55.19;100359.50;5082791;28;20204;-75
2023/04/27 11:47:54;;;;;;;3.63;1.87;;;;;;;20.30;55.29;100364.56;5082357;28;20757;-74
2023/04/27 11:53:47;;;;;;;1.60;1.50;;;;;;;20.50;55.46;100350.44;5078775;28;20195;-74
2023/04/27 11:56:50;;;;;;;2.23;1.63;;;;;;;20.68;56.34;100349.53;5084078;28;20673;-74
2023/04/27 12:06:02;;;;;;;3.43;1.70;;;;;;;21.43;55.74;100336.09;5082014;28;20249;-74
2023/04/27 12:08:46;;;;;;;2.17;1.60;;;;;;;21.71;55.57;100342.50;5082670;28;20305;-74
2023/04/27 12:11:30;;;;;;;2.77;1.80;;;;;;;21.91;55.69;100338.75;5077817;28;20611;-73
2023/04/27 12:14:13;;;;;;;2.00;1.73;;;;;;;22.15;55.61;100340.97;5080804;28;20189;-73
2023/04/27 12:17:16;;;;;;;2.17;1.60;;;;;;;22.29;54.81;100339.34;5078406;28;21039;-74
2023/04/27 12:20:19;;;;;;;3.27;1.77;;;;;;;22.28;54.23;100335.00;5076176;28;20189;-74
2023/04/27 12:23:22;;;;;;;1.77;1.60;;;;;;;22.29;53.72;100326.97;5079374;28;20263;-74
2023/04/27 12:26:06;;;;;;;1.40;1.30;;;;;;;22.42;53.64;100323.66;5083159;28;20732;-74
2023/04/27 12:28:49;;;;;;;2.23;1.37;;;;;;;22.42;53.35;100327.16;5074793;28;20614;-74
2023/04/27 12:34:38;;;;;;;2.07;1.40;;;;;;;22.34;52.88;100322.31;5075144;28;20192;-72
2023/04/27 12:44:05;;;;;;;2.97;2.30;;;;;;;21.94;52.61;100319.28;5078031;28;20261;-74
2023/04/27 12:46:49;;;;;;;2.87;2.30;;;;;;;21.71;52.65;100317.94;5078066;28;20311;-74
2023/04/27 12:49:35;;;;;;;3.17;2.00;;;;;;;21.52;52.53;100311.03;5079120;28;20219;-75
2023/04/27 12:52:00;;;;;;;2.83;2.07;;;;;;;21.40;52.79;100314.34;5078996;28;20196;-73
2023/04/27 12:54:45;;;;;;;5.17;2.37;;;;;;;21.11;52.71;100309.69;5080374;28;20530;-73
2023/04/27 13:00:33;;;;;;;2.33;1.70;;;;;;;21.21;52.62;100309.19;5076448;28;20231;-76
2023/04/27 13:16:06;;;;;;;2.80;1.80;;;;;;;21.30;54.90;100308.72;5079632;28;20227;-74
2023/04/27 13:18:51;;;;;;;2.33;1.77;;;;;;;21.32;54.26;100305.06;5079676;28;21033;-74
2023/04/27 13:25:15;;;;;;;1.37;1.27;;;;;;;21.58;55.03;100302.78;5076527;28;20281;-74
2023/04/27 13:28:18;;;;;;;1.67;1.03;;;;;;;21.86;55.34;100309.19;5080596;28;20269;-74
2023/04/27 13:37:46;;;;;;;1.70;1.30;;;;;;;22.14;54.53;100298.88;5077235;28;20286;-74
2023/04/27 13:40:12;;;;;;;2.20;1.30;;;;;;;22.14;54.54;100294.47;5083321;28;20284;-74
2023/04/27 13:42:56;;;;;;;1.40;1.20;;;;;;;22.13;54.82;100291.91;5099367;28;20247;-73
2023/04/27 13:48:43;;;;;;;1.47;1.20;;;;;;;21.87;55.49;100288.97;5078776;28;20285;-76
2023/04/27 13:51:46;;;;;;;1.83;1.40;;;;;;;21.64;55.65;100292.88;5079121;28;20271;-75
2023/04/27 13:57:14;;;;;;;3.60;1.80;;;;;;;21.31;53.21;100292.84;5077640;28;20356;-73
2023/04/27 14:03:21;;;;;;;2.00;1.70;;;;;;;20.79;54.18;100298.22;5081924;28;20207;-73
2023/04/27 14:06:06;;;;;;;2.57;1.47;;;;;;;20.66;54.60;100293.53;5078130;28;20652;-73
2023/04/27 14:11:53;;;;;;;1.80;1.70;;;;;;;20.90;55.69;100281.88;5079818;28;20232;-73
2023/04/27 14:17:21;;;;;;;1.77;1.50;;;;;;;21.29;56.03;100293.84;5075936;28;20683;-74
2023/04/27 14:19:46;;;;;;;2.83;1.40;;;;;;;21.41;56.13;100284.44;5080283;28;20216;-73
2023/04/27 14:26:11;;;;;;;2.17;1.50;;;;;;;21.37;55.80;100286.38;5082028;28;20184;-73
2023/04/27 14:28:36;;;;;;;2.33;1.80;;;;;;;21.37;56.56;100285.53;5076355;28;20224;-73
2023/04/27 14:37:46;;;;;;;2.27;1.47;;;;;;;20.80;56.89;100274.47;5082416;28;20212;-74
2023/04/27 14:40:30;;;;;;;1.83;1.47;;;;;;;20.68;56.52;100270.66;5081131;28;20710;-73
2023/04/27 14:49:58;;;;;;;1.37;1.27;;;;;;;20.75;57.85;100270.34;5081549;28;20363;-74
2023/04/27 14:53:01;;;;;;;2.13;1.30;;;;;;;20.73;58.27;100277.47;5085189;28;20271;-74
2023/04/27 14:55:45;;;;;;;1.43;1.30;;;;;;;20.61;58.47;100281.56;5083791;28;20564;-73
2023/04/27 15:07:38;;;;;;;1.20;0.90;;;;;;;20.37;58.90;100285.34;5081928;28;20711;-74
2023/04/27 15:16:48;;;;;;;1.17;0.80;;;;;;;20.48;57.37;100260.31;5080040;28;20186;-74
2023/04/27 15:19:32;;;;;;;0.70;0.70;;;;;;;20.58;56.82;100258.91;5076239;28;20205;-74
2023/04/27 15:22:16;;;;;;;0.80;0.80;;;;;;;20.80;56.49;100252.56;5079989;28;20205;-74
2023/04/27 15:25:00;;;;;;;0.70;0.70;;;;;;;20.94;56.40;100244.81;5082196;28;20181;-74
2023/04/27 15:36:34;;;;;;;1.00;0.80;;;;;;;21.15;56.94;100236.69;5077671;28;20214;-73
2023/04/27 15:39:37;;;;;;;1.03;0.50;;;;;;;21.04;56.91;100239.06;5079358;28;20309;-73
2023/04/27 15:42:03;;;;;;;1.07;0.80;;;;;;;20.90;56.94;100240.66;5077635;28;20709;-74
2023/04/27 15:45:06;;;;;;;0.87;0.80;;;;;;;20.77;56.57;100231.72;5074260;28;20189;-74
2023/04/27 15:47:31;;;;;;;0.90;0.90;;;;;;;20.52;56.52;100230.31;5067131;28;20205;-73
2023/04/27 16:03:07;;;;;;;1.20;1.10;;;;;;;19.55;56.89;100215.75;5076377;28;20258;-73
2023/04/27 16:09:12;;;;;;;1.10;0.97;;;;;;;19.39;57.33;100207.78;5075635;28;20275;-73
2023/04/27 16:17:43;;;;;;;0.90;0.90;;;;;;;19.07;58.21;100209.25;5078705;28;20371;-73
2023/04/27 16:26:15;;;;;;;1.13;0.90;;;;;;;18.90;58.92;100197.75;5079261;28;20196;-74
2023/04/27 16:28:59;;;;;;;0.80;0.80;;;;;;;18.83;58.82;100191.91;5078705;28;20201;-73
2023/04/27 16:41:30;;;;;;;1.30;1.20;;;;;;;18.57;59.79;100180.81;5073962;28;20204;-73
2023/04/27 16:44:14;;;;;;;1.63;0.80;;;;;;;18.55;60.18;100182.66;5076414;28;20196;-72
2023/04/27 16:47:17;;;;;;;0.83;0.67;;;;;;;18.51;60.58;100185.47;5073277;28;21086;-73
2023/04/27 16:53:41;;;;;;;2.13;1.10;;;;;;;18.32;61.07;100191.50;5073702;28;20184;-73
2023/04/27 16:56:45;;;;;;;2.70;1.20;;;;;;;18.28;60.97;100196.03;5075997;28;20177;-75
2023/04/27 16:59:48;;;;;;;1.20;1.10;;;;;;;18.21;61.25;100198.97;5076483;28;20212;-72
2023/04/27 17:02:33;;;;;;;1.17;1.03;;;;;;;18.16;61.61;100186.09;5074560;28;20208;-73
2023/04/27 17:04:59;;;;;;;1.87;1.10;;;;;;;18.16;61.30;100190.44;5073887;28;20193;-72
2023/04/27 17:11:08;;;;;;;1.60;1.10;;;;;;;18.08;61.03;100193.41;5076589;28;20229;-72
2023/04/27 17:13:52;;;;;;;1.20;1.10;;;;;;;18.03;61.39;100188.34;5077569;28;20309;-73
2023/04/27 17:16:36;;;;;;;1.20;1.10;;;;;;;17.97;61.71;100192.09;5076428;28;20183;-73
2023/04/27 17:22:42;;;;;;;1.03;0.80;;;;;;;17.89;62.31;100191.53;5079292;28;20208;-73
2023/04/27 17:31:32;;;;;;;1.03;0.93;;;;;;;17.75;64.60;100180.78;5075913;28;20201;-74
2023/04/27 17:55:19;;;;;;;1.10;1.00;;;;;;;17.19;70.07;100201.22;5071108;28;20253;-74
2023/04/27 18:04:28;;;;;;;3.17;2.10;;;;;;;16.82;73.78;100200.81;5073779;28;20213;-72
2023/04/27 18:07:12;;;;;;;2.13;1.93;;;;;;;16.75;75.79;100191.50;5071808;28;20655;-72
2023/04/27 18:10:15;;;;;;;1.60;1.50;;;;;;;16.63;75.67;100184.94;5071754;28;21091;-73
2023/04/27 18:16:01;;;;;;;2.90;1.30;;;;;;;16.38;74.59;100175.38;5074384;28;20283;-72
2023/04/27 18:32:26;;;;;;;1.47;1.37;;;;;;;15.80;75.93;100193.81;5079939;28;20669;-72
2023/04/27 18:35:10;;;;;;;1.30;1.20;;;;;;;15.68;76.01;100190.69;5081677;28;20224;-73
2023/04/27 18:37:54;;;;;;;1.30;1.13;;;;;;;15.59;76.28;100185.75;5083433;28;20296;-73
2023/04/27 18:40:39;;;;;;;1.20;1.10;;;;;;;15.51;76.37;100182.53;5082276;28;20198;-74
2023/04/27 18:43:24;;;;;;;1.20;0.80;;;;;;;15.43;76.54;100179.34;5082184;28;20707;-73
2023/04/27 18:45:50;;;;;;;1.53;1.10;;;;;;;15.34;76.71;100178.69;5079492;28;20190;-72
2023/04/27 18:51:37;;;;;;;1.10;1.00;;;;;;;15.24;76.69;100185.09;5077116;28;20341;-73
2023/04/27 18:57:25;;;;;;;1.40;1.30;;;;;;;15.17;77.31;100184.44;5073389;28;20250;-73
2023/04/27 19:03:50;;;;;;;1.00;0.90;;;;;;;15.14;78.08;100189.72;5071677;28;20734;-72
2023/04/27 19:12:40;;;;;;;1.20;0.90;;;;;;;15.02;79.01;100190.09;5070935;28;20201;-73
2023/04/27 19:18:45;;;;;;;1.17;1.07;;;;;;;14.94;78.77;100183.34;5081053;28;20212;-75
2023/04/27 19:30:38;;;;;;;1.20;1.10;;;;;;;14.74;78.12;100176.09;5076991;28;20212;-74
2023/04/27 19:35:47;;;;;;;1.10;1.00;;;;;;;14.64;78.48;100172.84;5075785;28;20203;-73
2023/04/27 19:38:31;;;;;;;1.90;1.13;;;;;;;14.59;79.23;100174.75;5083176;28;20220;-73
2023/04/27 19:41:16;;;;;;;2.20;0.93;;;;;;;14.54;79.60;100186.16;5084547;28;20177;-74
2023/04/27 19:44:00;;;;;;;1.30;1.20;;;;;;;14.46;80.38;100183.75;5080169;28;20272;-72
2023/04/27 19:46:43;;;;;;;1.50;1.40;;;;;;;14.40;81.18;100181.34;5083268;28;20202;-74
2023/04/27 20:35:55;;;;;;;3.20;1.90;;;;;;;13.86;96.57;100153.19;5079000;28;20234;-73
2023/04/27 20:38:21;;;;;;;3.17;1.93;;;;;;;13.82;96.43;100151.56;5077980;28;20636;-73
2023/04/27 20:40:49;;;;;;;3.43;1.90;;;;;;;13.78;96.32;100149.91;5081498;28;20183;-74
2023/04/27 20:43:14;;;;;;;4.40;2.47;;;;;;;13.74;96.43;100156.09;5079885;28;20306;-73
2023/04/27 20:45:40;;;;;;;3.37;2.17;;;;;;;13.72;96.55;100143.13;5077494;28;20275;-73
2023/04/27 20:48:08;;;;;;;3.90;2.20;;;;;;;13.72;96.66;100137.06;5076024;28;20220;-73
2023/04/27 20:50:33;;;;;;;3.50;2.23;;;;;;;13.74;97.13;100134.44;5082639;28;20276;-73
2023/04/27 20:52:59;;;;;;;7.23;3.60;;;;;;;13.75;97.33;100136.13;5080033;28;20270;-73
2023/04/27 20:55:24;;;;;;;4.77;2.77;;;;;;;13.75;97.34;100131.81;5082864;28;20673;-73
2023/04/27 20:57:50;;;;;;;5.13;2.67;;;;;;;13.75;97.30;100134.41;5081756;28;20292;-74
2023/04/27 21:00:17;;;;;;;5.13;2.60;;;;;;;13.76;97.67;100137.84;5064228;28;20622;-73
2023/04/27 21:02:43;;;;;;;3.10;2.00;;;;;;;13.74;97.76;100122.28;5080608;28;20216;-74
2023/04/27 21:05:08;;;;;;;5.10;2.20;;;;;;;13.70;98.05;100131.91;5080125;28;20248;-74
2023/04/27 21:07:33;;;;;;;2.67;1.67;;;;;;;13.64;98.14;100120.78;5081291;28;20224;-73
2023/04/27 21:10:04;;;;;;;3.07;1.80;;;;;;;13.57;98.27;100122.69;5080146;28;20184;-73
2023/04/27 21:12:31;;;;;;;2.20;1.90;;;;;;;13.51;97.92;100123.69;5078985;28;20218;-73
2023/04/27 21:14:56;;;;;;;4.20;2.10;;;;;;;13.47;98.13;100118.59;5077567;28;20737;-73
2023/04/27 21:17:21;;;;;;;3.73;2.00;;;;;;;13.46;98.22;100114.28;5080952;28;20265;-74
2023/04/27 21:19:47;;;;;;;2.70;1.83;;;;;;;13.44;97.77;100111.75;5064757;28;20183;-74
2023/04/27 21:22:12;;;;;;;3.20;2.00;;;;;;;13.44;97.90;100110.88;5077436;28;20926;-74
2023/04/27 21:24:37;;;;;;;5.83;2.40;;;;;;;13.44;98.45;100105.69;5074730;28;20207;-73
2023/04/27 21:27:03;;;;;;;9.83;3.20;;;;;;;13.44;99.18;100108.28;5080174;28;20200;-73
2023/04/27 21:29:28;;;;;;;14.03;4.23;;;;;;;13.38;99.87;100110.13;5081574;28;20215;-74
2023/04/27 21:31:53;;;;;;;11.67;3.87;;;;;;;13.33;100.00;100100.69;5083017;28;21178;-73
2023/04/27 21:34:19;;;;;;;11.77;3.67;;;;;;;13.25;100.00;100108.66;5077721;28;20198;-74
2023/04/27 21:36:44;;;;;;;9.30;2.70;;;;;;;13.15;99.93;100102.84;5081941;28;20609;-74
2023/04/27 21:39:10;;;;;;;5.63;2.70;;;;;;;13.07;99.08;100108.22;5081375;28;20209;-73
2023/04/27 21:41:38;;;;;;;5.03;2.50;;;;;;;13.01;98.94;100099.69;5062464;28;20227;-73
2023/04/27 21:44:03;;;;;;;5.13;2.83;;;;;;;12.98;99.44;100098.00;5075190;28;20185;-73
2023/04/27 21:46:28;;;;;;;3.63;2.37;;;;;;;12.99;100.00;100098.88;5079705;28;20188;-74
2023/04/27 21:48:54;;;;;;;4.60;2.33;;;;;;;12.95;99.92;100100.66;5081541;28;20272;-74